sensor_id;sensor_type;location;lat;lon;timestamp;P1;durP1;ratioP1;P2;durP2;ratioP2
19891;SDS011;10108;50.142;8.724;2022-08-19T00:01:22;25.13;;;16.52;;
19891;SDS011;10108;50.142;8.724;2022-08-19T00:03:49;21.70;;;16.27;;
19891;SDS011;10108;50.142;8.724;2022-08-19T00:06:15;21.33;;;16.65;;
19891;SDS011;10108;50.142;8.724;2022-08-19T00:08:42;21.73;;;15.75;;
19891;SDS011;10108;50.142;8.724;2022-08-19T00:11:08;21.27;;;15.95;;
19891;SDS011;10108;50.142;8.724;2022-08-19T00:13:35;23.35;;;17.20;;
19891;SDS011;10108;50.142;8.724;2022-08-19T00:16:02;23.77;;;15.80;;
19891;SDS011;10108;50.142;8.724;2022-08-19T00:18:28;20.52;;;15.88;;
19891;SDS011;10108;50.142;8.724;2022-08-19T00:20:54;22.33;;;16.27;;
19891;SDS011;10108;50.142;8.724;2022-08-19T00:23:20;21.50;;;16.45;;
19891;SDS011;10108;50.142;8.724;2022-08-19T00:25:46;23.88;;;15.88;;
19891;SDS011;10108;50.142;8.724;2022-08-19T00:28:13;26.08;;;16.90;;
19891;SDS011;10108;50.142;8.724;2022-08-19T00:30:39;23.15;;;17.00;;
19891;SDS011;10108;50.142;8.724;2022-08-19T00:33:06;20.38;;;16.00;;
19891;SDS011;10108;50.142;8.724;2022-08-19T00:35:33;24.52;;;16.92;;
19891;SDS011;10108;50.142;8.724;2022-08-19T00:37:59;22.80;;;16.08;;
19891;SDS011;10108;50.142;8.724;2022-08-19T00:40:25;21.77;;;15.68;;
19891;SDS011;10108;50.142;8.724;2022-08-19T00:42:52;22.38;;;16.50;;
19891;SDS011;10108;50.142;8.724;2022-08-19T00:45:22;22.08;;;16.52;;
19891;SDS011;10108;50.142;8.724;2022-08-19T00:47:50;22.83;;;16.48;;
19891;SDS011;10108;50.142;8.724;2022-08-19T00:50:17;23.25;;;16.02;;
19891;SDS011;10108;50.142;8.724;2022-08-19T00:52:46;21.42;;;16.52;;
19891;SDS011;10108;50.142;8.724;2022-08-19T00:55:19;21.17;;;16.27;;
19891;SDS011;10108;50.142;8.724;2022-08-19T00:57:50;24.92;;;16.95;;
19891;SDS011;10108;50.142;8.724;2022-08-19T01:00:20;23.13;;;16.45;;
19891;SDS011;10108;50.142;8.724;2022-08-19T01:02:48;22.15;;;16.58;;
19891;SDS011;10108;50.142;8.724;2022-08-19T01:05:16;25.05;;;16.98;;
19891;SDS011;10108;50.142;8.724;2022-08-19T01:07:49;21.95;;;16.60;;
19891;SDS011;10108;50.142;8.724;2022-08-19T01:10:18;24.27;;;16.55;;
19891;SDS011;10108;50.142;8.724;2022-08-19T01:12:46;26.08;;;16.27;;
19891;SDS011;10108;50.142;8.724;2022-08-19T01:15:16;24.63;;;16.60;;
19891;SDS011;10108;50.142;8.724;2022-08-19T01:17:45;21.27;;;16.23;;
19891;SDS011;10108;50.142;8.724;2022-08-19T01:20:14;26.35;;;15.88;;
19891;SDS011;10108;50.142;8.724;2022-08-19T01:22:51;21.92;;;15.40;;
19891;SDS011;10108;50.142;8.724;2022-08-19T01:25:20;23.73;;;16.08;;
19891;SDS011;10108;50.142;8.724;2022-08-19T01:27:50;21.33;;;16.23;;
19891;SDS011;10108;50.142;8.724;2022-08-19T01:30:19;21.55;;;15.52;;
19891;SDS011;10108;50.142;8.724;2022-08-19T01:32:51;23.45;;;15.73;;
19891;SDS011;10108;50.142;8.724;2022-08-19T01:35:18;22.02;;;16.50;;
19891;SDS011;10108;50.142;8.724;2022-08-19T01:37:46;20.67;;;15.52;;
19891;SDS011;10108;50.142;8.724;2022-08-19T01:40:15;22.08;;;15.93;;
19891;SDS011;10108;50.142;8.724;2022-08-19T01:42:42;22.48;;;15.07;;
19891;SDS011;10108;50.142;8.724;2022-08-19T01:45:09;19.13;;;15.45;;
19891;SDS011;10108;50.142;8.724;2022-08-19T01:47:36;21.75;;;16.00;;
19891;SDS011;10108;50.142;8.724;2022-08-19T01:50:03;20.98;;;15.82;;
19891;SDS011;10108;50.142;8.724;2022-08-19T01:52:30;19.75;;;14.93;;
19891;SDS011;10108;50.142;8.724;2022-08-19T01:54:57;23.35;;;16.10;;
19891;SDS011;10108;50.142;8.724;2022-08-19T01:57:23;19.42;;;14.95;;
19891;SDS011;10108;50.142;8.724;2022-08-19T01:59:49;20.35;;;15.20;;
19891;SDS011;10108;50.142;8.724;2022-08-19T02:02:15;19.73;;;14.63;;
19891;SDS011;10108;50.142;8.724;2022-08-19T02:04:42;21.20;;;15.02;;
19891;SDS011;10108;50.142;8.724;2022-08-19T02:07:08;20.42;;;15.27;;
19891;SDS011;10108;50.142;8.724;2022-08-19T02:09:35;22.52;;;15.73;;
19891;SDS011;10108;50.142;8.724;2022-08-19T02:12:01;20.50;;;15.35;;
19891;SDS011;10108;50.142;8.724;2022-08-19T02:14:28;20.83;;;14.88;;
19891;SDS011;10108;50.142;8.724;2022-08-19T02:16:54;20.13;;;15.32;;
19891;SDS011;10108;50.142;8.724;2022-08-19T02:19:20;19.15;;;14.50;;
19891;SDS011;10108;50.142;8.724;2022-08-19T02:21:46;19.98;;;14.93;;
19891;SDS011;10108;50.142;8.724;2022-08-19T02:24:12;19.58;;;14.35;;
19891;SDS011;10108;50.142;8.724;2022-08-19T02:26:38;18.23;;;14.07;;
19891;SDS011;10108;50.142;8.724;2022-08-19T02:29:05;19.98;;;14.02;;
19891;SDS011;10108;50.142;8.724;2022-08-19T02:31:31;24.00;;;15.02;;
19891;SDS011;10108;50.142;8.724;2022-08-19T02:33:57;20.67;;;14.50;;
19891;SDS011;10108;50.142;8.724;2022-08-19T02:36:23;20.33;;;14.50;;
19891;SDS011;10108;50.142;8.724;2022-08-19T02:38:50;19.20;;;15.10;;
19891;SDS011;10108;50.142;8.724;2022-08-19T02:41:19;20.23;;;14.15;;
19891;SDS011;10108;50.142;8.724;2022-08-19T02:43:47;18.83;;;15.20;;
19891;SDS011;10108;50.142;8.724;2022-08-19T02:46:35;18.83;;;14.65;;
19891;SDS011;10108;50.142;8.724;2022-08-19T02:49:03;19.55;;;14.27;;
19891;SDS011;10108;50.142;8.724;2022-08-19T02:51:33;23.13;;;14.38;;
19891;SDS011;10108;50.142;8.724;2022-08-19T02:54:01;18.33;;;14.50;;
19891;SDS011;10108;50.142;8.724;2022-08-19T02:56:28;19.27;;;14.10;;
19891;SDS011;10108;50.142;8.724;2022-08-19T02:58:54;20.45;;;13.45;;
19891;SDS011;10108;50.142;8.724;2022-08-19T03:01:22;20.45;;;14.00;;
19891;SDS011;10108;50.142;8.724;2022-08-19T03:03:54;17.55;;;14.07;;
19891;SDS011;10108;50.142;8.724;2022-08-19T03:06:25;18.90;;;14.15;;
19891;SDS011;10108;50.142;8.724;2022-08-19T03:08:52;17.95;;;14.52;;
19891;SDS011;10108;50.142;8.724;2022-08-19T03:11:20;19.58;;;14.55;;
19891;SDS011;10108;50.142;8.724;2022-08-19T03:13:49;18.92;;;14.10;;
19891;SDS011;10108;50.142;8.724;2022-08-19T03:16:17;17.65;;;14.35;;
19891;SDS011;10108;50.142;8.724;2022-08-19T03:18:44;20.67;;;14.85;;
19891;SDS011;10108;50.142;8.724;2022-08-19T03:21:14;20.35;;;14.23;;
19891;SDS011;10108;50.142;8.724;2022-08-19T03:23:49;17.85;;;13.95;;
19891;SDS011;10108;50.142;8.724;2022-08-19T03:26:18;18.63;;;13.98;;
19891;SDS011;10108;50.142;8.724;2022-08-19T03:28:45;18.60;;;13.60;;
19891;SDS011;10108;50.142;8.724;2022-08-19T03:31:16;19.70;;;13.57;;
19891;SDS011;10108;50.142;8.724;2022-08-19T03:33:44;22.08;;;14.40;;
19891;SDS011;10108;50.142;8.724;2022-08-19T03:36:13;20.05;;;14.05;;
19891;SDS011;10108;50.142;8.724;2022-08-19T03:38:56;17.30;;;14.10;;
19891;SDS011;10108;50.142;8.724;2022-08-19T03:41:26;17.58;;;13.65;;
19891;SDS011;10108;50.142;8.724;2022-08-19T03:43:56;20.85;;;14.55;;
19891;SDS011;10108;50.142;8.724;2022-08-19T03:46:26;21.98;;;14.10;;
19891;SDS011;10108;50.142;8.724;2022-08-19T03:48:55;17.80;;;13.48;;
19891;SDS011;10108;50.142;8.724;2022-08-19T03:51:31;18.65;;;13.55;;
19891;SDS011;10108;50.142;8.724;2022-08-19T03:54:01;17.52;;;13.60;;
19891;SDS011;10108;50.142;8.724;2022-08-19T03:56:29;20.00;;;14.20;;
19891;SDS011;10108;50.142;8.724;2022-08-19T03:58:56;17.65;;;13.73;;
19891;SDS011;10108;50.142;8.724;2022-08-19T04:01:25;18.17;;;13.82;;
19891;SDS011;10108;50.142;8.724;2022-08-19T04:03:53;22.23;;;14.80;;
19891;SDS011;10108;50.142;8.724;2022-08-19T04:06:22;19.17;;;14.95;;
19891;SDS011;10108;50.142;8.724;2022-08-19T04:08:51;18.02;;;14.38;;
19891;SDS011;10108;50.142;8.724;2022-08-19T04:11:23;17.70;;;13.98;;
19891;SDS011;10108;50.142;8.724;2022-08-19T04:13:54;20.60;;;14.43;;
19891;SDS011;10108;50.142;8.724;2022-08-19T04:16:22;19.60;;;15.13;;
19891;SDS011;10108;50.142;8.724;2022-08-19T04:18:54;20.35;;;14.05;;
19891;SDS011;10108;50.142;8.724;2022-08-19T04:21:24;18.98;;;14.85;;
19891;SDS011;10108;50.142;8.724;2022-08-19T04:23:51;22.17;;;14.00;;
19891;SDS011;10108;50.142;8.724;2022-08-19T04:26:19;18.38;;;15.20;;
19891;SDS011;10108;50.142;8.724;2022-08-19T04:28:49;19.50;;;14.15;;
19891;SDS011;10108;50.142;8.724;2022-08-19T04:31:21;20.30;;;15.10;;
19891;SDS011;10108;50.142;8.724;2022-08-19T04:33:52;21.02;;;14.90;;
19891;SDS011;10108;50.142;8.724;2022-08-19T04:36:20;19.15;;;14.93;;
19891;SDS011;10108;50.142;8.724;2022-08-19T04:38:48;19.80;;;15.02;;
19891;SDS011;10108;50.142;8.724;2022-08-19T04:41:16;18.95;;;14.98;;
19891;SDS011;10108;50.142;8.724;2022-08-19T04:44:01;20.27;;;14.60;;
19891;SDS011;10108;50.142;8.724;2022-08-19T04:46:28;17.13;;;13.95;;
19891;SDS011;10108;50.142;8.724;2022-08-19T04:48:55;18.73;;;15.30;;
19891;SDS011;10108;50.142;8.724;2022-08-19T04:51:22;18.13;;;14.55;;
19891;SDS011;10108;50.142;8.724;2022-08-19T04:53:49;21.23;;;15.35;;
19891;SDS011;10108;50.142;8.724;2022-08-19T04:56:16;18.25;;;14.52;;
19891;SDS011;10108;50.142;8.724;2022-08-19T04:58:44;19.45;;;14.27;;
19891;SDS011;10108;50.142;8.724;2022-08-19T05:01:12;18.05;;;15.00;;
19891;SDS011;10108;50.142;8.724;2022-08-19T05:03:39;19.05;;;14.48;;
19891;SDS011;10108;50.142;8.724;2022-08-19T05:06:07;21.23;;;15.00;;
19891;SDS011;10108;50.142;8.724;2022-08-19T05:08:36;18.73;;;14.82;;
19891;SDS011;10108;50.142;8.724;2022-08-19T05:11:11;21.75;;;14.48;;
19891;SDS011;10108;50.142;8.724;2022-08-19T05:13:39;19.95;;;15.30;;
19891;SDS011;10108;50.142;8.724;2022-08-19T05:16:05;22.10;;;14.52;;
19891;SDS011;10108;50.142;8.724;2022-08-19T05:18:32;23.20;;;15.65;;
19891;SDS011;10108;50.142;8.724;2022-08-19T05:21:17;20.40;;;14.82;;
19891;SDS011;10108;50.142;8.724;2022-08-19T05:24:04;21.67;;;14.85;;
19891;SDS011;10108;50.142;8.724;2022-08-19T05:26:35;20.90;;;14.82;;
19891;SDS011;10108;50.142;8.724;2022-08-19T05:29:06;18.80;;;14.25;;
19891;SDS011;10108;50.142;8.724;2022-08-19T05:31:34;18.25;;;14.52;;
19891;SDS011;10108;50.142;8.724;2022-08-19T05:34:02;20.67;;;14.73;;
19891;SDS011;10108;50.142;8.724;2022-08-19T05:36:32;19.33;;;14.10;;
19891;SDS011;10108;50.142;8.724;2022-08-19T05:39:02;19.63;;;14.75;;
19891;SDS011;10108;50.142;8.724;2022-08-19T05:41:29;18.35;;;14.82;;
19891;SDS011;10108;50.142;8.724;2022-08-19T05:43:56;21.33;;;14.80;;
19891;SDS011;10108;50.142;8.724;2022-08-19T05:46:23;18.55;;;14.00;;
19891;SDS011;10108;50.142;8.724;2022-08-19T05:48:49;19.65;;;14.27;;
19891;SDS011;10108;50.142;8.724;2022-08-19T05:51:15;19.08;;;14.15;;
19891;SDS011;10108;50.142;8.724;2022-08-19T05:53:42;21.42;;;14.40;;
19891;SDS011;10108;50.142;8.724;2022-08-19T05:56:12;21.63;;;14.38;;
19891;SDS011;10108;50.142;8.724;2022-08-19T05:58:41;20.95;;;14.02;;
19891;SDS011;10108;50.142;8.724;2022-08-19T06:01:11;19.23;;;13.68;;
19891;SDS011;10108;50.142;8.724;2022-08-19T06:03:39;17.40;;;13.57;;
19891;SDS011;10108;50.142;8.724;2022-08-19T06:06:06;20.30;;;13.80;;
19891;SDS011;10108;50.142;8.724;2022-08-19T06:08:34;17.25;;;13.05;;
19891;SDS011;10108;50.142;8.724;2022-08-19T06:11:12;20.33;;;13.40;;
19891;SDS011;10108;50.142;8.724;2022-08-19T06:13:48;16.58;;;12.38;;
19891;SDS011;10108;50.142;8.724;2022-08-19T06:16:18;16.75;;;13.80;;
19891;SDS011;10108;50.142;8.724;2022-08-19T06:18:48;16.73;;;13.15;;
19891;SDS011;10108;50.142;8.724;2022-08-19T06:21:19;18.95;;;13.00;;
19891;SDS011;10108;50.142;8.724;2022-08-19T06:23:46;17.05;;;13.25;;
19891;SDS011;10108;50.142;8.724;2022-08-19T06:26:13;17.90;;;13.27;;
19891;SDS011;10108;50.142;8.724;2022-08-19T06:28:41;14.57;;;12.63;;
19891;SDS011;10108;50.142;8.724;2022-08-19T06:31:15;16.27;;;12.75;;
19891;SDS011;10108;50.142;8.724;2022-08-19T06:33:44;16.20;;;12.68;;
19891;SDS011;10108;50.142;8.724;2022-08-19T06:38:55;17.80;;;13.52;;
19891;SDS011;10108;50.142;8.724;2022-08-19T06:41:25;15.55;;;12.20;;
19891;SDS011;10108;50.142;8.724;2022-08-19T06:43:52;14.65;;;12.23;;
19891;SDS011;10108;50.142;8.724;2022-08-19T06:46:19;16.20;;;12.48;;
19891;SDS011;10108;50.142;8.724;2022-08-19T06:48:45;16.85;;;12.75;;
19891;SDS011;10108;50.142;8.724;2022-08-19T06:51:14;15.07;;;12.43;;
19891;SDS011;10108;50.142;8.724;2022-08-19T06:53:47;16.10;;;12.20;;
19891;SDS011;10108;50.142;8.724;2022-08-19T06:56:15;15.48;;;12.70;;
19891;SDS011;10108;50.142;8.724;2022-08-19T06:58:42;14.70;;;12.82;;
19891;SDS011;10108;50.142;8.724;2022-08-19T07:01:09;27.08;;;13.65;;
19891;SDS011;10108;50.142;8.724;2022-08-19T07:03:36;31.20;;;13.80;;
19891;SDS011;10108;50.142;8.724;2022-08-19T07:06:07;16.08;;;12.18;;
19891;SDS011;10108;50.142;8.724;2022-08-19T07:08:40;19.33;;;12.45;;
19891;SDS011;10108;50.142;8.724;2022-08-19T07:11:08;22.10;;;12.40;;
19891;SDS011;10108;50.142;8.724;2022-08-19T07:13:38;24.23;;;12.65;;
19891;SDS011;10108;50.142;8.724;2022-08-19T07:16:06;18.40;;;12.40;;
19891;SDS011;10108;50.142;8.724;2022-08-19T07:18:34;18.30;;;12.52;;
19891;SDS011;10108;50.142;8.724;2022-08-19T07:21:08;14.82;;;11.63;;
19891;SDS011;10108;50.142;8.724;2022-08-19T07:23:37;19.92;;;11.23;;
19891;SDS011;10108;50.142;8.724;2022-08-19T07:26:11;16.13;;;11.52;;
19891;SDS011;10108;50.142;8.724;2022-08-19T07:28:40;19.63;;;11.90;;
19891;SDS011;10108;50.142;8.724;2022-08-19T07:31:12;16.40;;;11.60;;
19891;SDS011;10108;50.142;8.724;2022-08-19T07:33:40;17.83;;;11.45;;
19891;SDS011;10108;50.142;8.724;2022-08-19T07:36:08;13.73;;;11.35;;
19891;SDS011;10108;50.142;8.724;2022-08-19T07:38:37;14.23;;;11.15;;
19891;SDS011;10108;50.142;8.724;2022-08-19T07:41:05;17.88;;;10.55;;
19891;SDS011;10108;50.142;8.724;2022-08-19T07:43:31;13.13;;;10.10;;
19891;SDS011;10108;50.142;8.724;2022-08-19T07:45:58;15.73;;;10.63;;
19891;SDS011;10108;50.142;8.724;2022-08-19T07:48:25;14.90;;;10.80;;
19891;SDS011;10108;50.142;8.724;2022-08-19T07:50:53;17.00;;;10.25;;
19891;SDS011;10108;50.142;8.724;2022-08-19T07:53:20;12.27;;;10.70;;
19891;SDS011;10108;50.142;8.724;2022-08-19T07:55:47;13.25;;;10.98;;
19891;SDS011;10108;50.142;8.724;2022-08-19T07:58:15;16.67;;;10.13;;
19891;SDS011;10108;50.142;8.724;2022-08-19T08:00:44;15.80;;;10.85;;
19891;SDS011;10108;50.142;8.724;2022-08-19T08:03:13;14.30;;;10.70;;
19891;SDS011;10108;50.142;8.724;2022-08-19T08:05:41;16.27;;;10.65;;
19891;SDS011;10108;50.142;8.724;2022-08-19T08:08:26;15.15;;;11.10;;
19891;SDS011;10108;50.142;8.724;2022-08-19T08:11:01;13.15;;;10.80;;
19891;SDS011;10108;50.142;8.724;2022-08-19T08:13:27;12.48;;;10.70;;
19891;SDS011;10108;50.142;8.724;2022-08-19T08:15:54;12.95;;;10.60;;
19891;SDS011;10108;50.142;8.724;2022-08-19T08:18:20;12.85;;;10.45;;
19891;SDS011;10108;50.142;8.724;2022-08-19T08:20:46;11.75;;;9.57;;
19891;SDS011;10108;50.142;8.724;2022-08-19T08:23:12;11.98;;;9.88;;
19891;SDS011;10108;50.142;8.724;2022-08-19T08:25:48;9.95;;;8.70;;
19891;SDS011;10108;50.142;8.724;2022-08-19T08:28:15;11.68;;;9.13;;
19891;SDS011;10108;50.142;8.724;2022-08-19T08:30:42;13.32;;;9.98;;
19891;SDS011;10108;50.142;8.724;2022-08-19T08:33:09;12.45;;;9.93;;
19891;SDS011;10108;50.142;8.724;2022-08-19T08:35:35;13.65;;;10.63;;
19891;SDS011;10108;50.142;8.724;2022-08-19T08:38:02;10.93;;;9.30;;
19891;SDS011;10108;50.142;8.724;2022-08-19T08:46:12;10.45;;;8.88;;
19891;SDS011;10108;50.142;8.724;2022-08-19T08:48:54;12.40;;;9.43;;
19891;SDS011;10108;50.142;8.724;2022-08-19T08:51:40;15.32;;;9.27;;
19891;SDS011;10108;50.142;8.724;2022-08-19T08:54:11;12.05;;;9.20;;
19891;SDS011;10108;50.142;8.724;2022-08-19T08:56:41;13.50;;;9.10;;
19891;SDS011;10108;50.142;8.724;2022-08-19T09:01:58;14.45;;;9.48;;
19891;SDS011;10108;50.142;8.724;2022-08-19T09:04:25;11.63;;;9.35;;
19891;SDS011;10108;50.142;8.724;2022-08-19T09:06:54;12.63;;;9.48;;
19891;SDS011;10108;50.142;8.724;2022-08-19T09:09:37;14.20;;;9.23;;
19891;SDS011;10108;50.142;8.724;2022-08-19T09:12:12;12.00;;;9.60;;
19891;SDS011;10108;50.142;8.724;2022-08-19T09:14:46;12.55;;;9.70;;
19891;SDS011;10108;50.142;8.724;2022-08-19T09:17:15;11.27;;;9.68;;
19891;SDS011;10108;50.142;8.724;2022-08-19T09:19:53;11.73;;;9.70;;
19891;SDS011;10108;50.142;8.724;2022-08-19T09:22:22;11.45;;;9.50;;
19891;SDS011;10108;50.142;8.724;2022-08-19T09:24:49;16.13;;;10.00;;
19891;SDS011;10108;50.142;8.724;2022-08-19T09:27:18;13.18;;;9.65;;
19891;SDS011;10108;50.142;8.724;2022-08-19T09:29:46;12.02;;;9.30;;
19891;SDS011;10108;50.142;8.724;2022-08-19T09:32:14;12.63;;;9.40;;
19891;SDS011;10108;50.142;8.724;2022-08-19T09:34:41;15.52;;;9.40;;
19891;SDS011;10108;50.142;8.724;2022-08-19T09:37:07;11.13;;;9.70;;
19891;SDS011;10108;50.142;8.724;2022-08-19T09:39:33;11.93;;;9.60;;
19891;SDS011;10108;50.142;8.724;2022-08-19T09:41:59;14.35;;;10.20;;
19891;SDS011;10108;50.142;8.724;2022-08-19T09:44:25;15.73;;;9.75;;
19891;SDS011;10108;50.142;8.724;2022-08-19T09:46:51;13.02;;;9.52;;
19891;SDS011;10108;50.142;8.724;2022-08-19T09:49:18;12.48;;;10.88;;
19891;SDS011;10108;50.142;8.724;2022-08-19T09:51:50;13.35;;;10.23;;
19891;SDS011;10108;50.142;8.724;2022-08-19T09:54:21;18.35;;;11.20;;
19891;SDS011;10108;50.142;8.724;2022-08-19T09:56:48;14.45;;;10.48;;
19891;SDS011;10108;50.142;8.724;2022-08-19T09:59:15;15.40;;;10.48;;
19891;SDS011;10108;50.142;8.724;2022-08-19T10:01:41;14.05;;;9.73;;
19891;SDS011;10108;50.142;8.724;2022-08-19T10:04:07;16.35;;;10.73;;
19891;SDS011;10108;50.142;8.724;2022-08-19T10:06:34;13.73;;;10.48;;
19891;SDS011;10108;50.142;8.724;2022-08-19T10:09:03;12.77;;;9.98;;
19891;SDS011;10108;50.142;8.724;2022-08-19T10:11:32;12.98;;;10.40;;
19891;SDS011;10108;50.142;8.724;2022-08-19T10:14:00;11.98;;;9.43;;
19891;SDS011;10108;50.142;8.724;2022-08-19T10:16:27;11.63;;;9.60;;
19891;SDS011;10108;50.142;8.724;2022-08-19T10:18:53;12.80;;;10.95;;
19891;SDS011;10108;50.142;8.724;2022-08-19T10:21:21;14.25;;;11.27;;
19891;SDS011;10108;50.142;8.724;2022-08-19T10:23:51;14.60;;;11.13;;
19891;SDS011;10108;50.142;8.724;2022-08-19T10:26:21;11.80;;;10.52;;
19891;SDS011;10108;50.142;8.724;2022-08-19T10:28:49;15.23;;;11.70;;
19891;SDS011;10108;50.142;8.724;2022-08-19T10:31:17;20.48;;;10.77;;
19891;SDS011;10108;50.142;8.724;2022-08-19T10:33:49;10.32;;;9.23;;
19891;SDS011;10108;50.142;8.724;2022-08-19T10:36:17;14.45;;;11.18;;
19891;SDS011;10108;50.142;8.724;2022-08-19T10:38:46;14.75;;;10.80;;
19891;SDS011;10108;50.142;8.724;2022-08-19T10:41:15;11.73;;;10.38;;
19891;SDS011;10108;50.142;8.724;2022-08-19T10:43:47;12.32;;;10.35;;
19891;SDS011;10108;50.142;8.724;2022-08-19T10:46:18;18.08;;;12.00;;
19891;SDS011;10108;50.142;8.724;2022-08-19T10:48:44;14.57;;;12.55;;
19891;SDS011;10108;50.142;8.724;2022-08-19T10:51:10;16.77;;;12.88;;
19891;SDS011;10108;50.142;8.724;2022-08-19T10:53:56;33.58;;;12.50;;
19891;SDS011;10108;50.142;8.724;2022-08-19T10:56:23;15.38;;;12.00;;
19891;SDS011;10108;50.142;8.724;2022-08-19T10:59:08;17.00;;;12.35;;
19891;SDS011;10108;50.142;8.724;2022-08-19T11:01:35;16.23;;;11.50;;
19891;SDS011;10108;50.142;8.724;2022-08-19T11:04:02;14.95;;;12.60;;
19891;SDS011;10108;50.142;8.724;2022-08-19T11:06:31;15.88;;;12.45;;
19891;SDS011;10108;50.142;8.724;2022-08-19T11:08:57;17.75;;;12.90;;
19891;SDS011;10108;50.142;8.724;2022-08-19T11:11:25;15.30;;;13.18;;
19891;SDS011;10108;50.142;8.724;2022-08-19T11:13:53;15.32;;;12.20;;
19891;SDS011;10108;50.142;8.724;2022-08-19T11:16:21;13.90;;;12.27;;
19891;SDS011;10108;50.142;8.724;2022-08-19T11:18:51;13.90;;;11.20;;
19891;SDS011;10108;50.142;8.724;2022-08-19T11:21:20;12.95;;;10.95;;
19891;SDS011;10108;50.142;8.724;2022-08-19T11:24:11;11.18;;;9.85;;
19891;SDS011;10108;50.142;8.724;2022-08-19T11:26:50;13.63;;;10.65;;
19891;SDS011;10108;50.142;8.724;2022-08-19T11:29:19;11.48;;;9.68;;
19891;SDS011;10108;50.142;8.724;2022-08-19T11:31:47;15.63;;;11.95;;
19891;SDS011;10108;50.142;8.724;2022-08-19T11:34:16;15.90;;;13.15;;
19891;SDS011;10108;50.142;8.724;2022-08-19T11:36:53;16.92;;;14.25;;
19891;SDS011;10108;50.142;8.724;2022-08-19T11:39:23;15.18;;;12.82;;
19891;SDS011;10108;50.142;8.724;2022-08-19T11:41:50;19.73;;;13.15;;
19891;SDS011;10108;50.142;8.724;2022-08-19T11:44:16;15.73;;;13.10;;
19891;SDS011;10108;50.142;8.724;2022-08-19T11:46:43;15.30;;;12.63;;
19891;SDS011;10108;50.142;8.724;2022-08-19T11:49:12;16.00;;;13.38;;
19891;SDS011;10108;50.142;8.724;2022-08-19T11:51:40;17.35;;;13.25;;
19891;SDS011;10108;50.142;8.724;2022-08-19T11:54:10;15.60;;;13.52;;
19891;SDS011;10108;50.142;8.724;2022-08-19T11:56:38;16.48;;;13.40;;
19891;SDS011;10108;50.142;8.724;2022-08-19T11:59:05;14.40;;;12.90;;
19891;SDS011;10108;50.142;8.724;2022-08-19T12:01:31;14.75;;;13.13;;
19891;SDS011;10108;50.142;8.724;2022-08-19T12:03:57;24.63;;;13.65;;
19891;SDS011;10108;50.142;8.724;2022-08-19T12:06:28;17.20;;;13.57;;
19891;SDS011;10108;50.142;8.724;2022-08-19T12:08:56;12.88;;;11.50;;
19891;SDS011;10108;50.142;8.724;2022-08-19T12:11:23;14.40;;;12.90;;
19891;SDS011;10108;50.142;8.724;2022-08-19T12:13:51;16.05;;;13.50;;
19891;SDS011;10108;50.142;8.724;2022-08-19T12:16:20;16.25;;;12.57;;
19891;SDS011;10108;50.142;8.724;2022-08-19T12:18:49;15.13;;;13.18;;
19891;SDS011;10108;50.142;8.724;2022-08-19T12:21:20;14.25;;;12.43;;
19891;SDS011;10108;50.142;8.724;2022-08-19T12:23:54;15.35;;;12.60;;
19891;SDS011;10108;50.142;8.724;2022-08-19T12:26:21;17.65;;;12.82;;
19891;SDS011;10108;50.142;8.724;2022-08-19T12:28:48;15.40;;;13.30;;
19891;SDS011;10108;50.142;8.724;2022-08-19T12:31:15;16.20;;;12.90;;
19891;SDS011;10108;50.142;8.724;2022-08-19T12:33:41;16.77;;;13.73;;
19891;SDS011;10108;50.142;8.724;2022-08-19T12:36:09;18.88;;;14.18;;
19891;SDS011;10108;50.142;8.724;2022-08-19T12:38:38;20.63;;;13.50;;
19891;SDS011;10108;50.142;8.724;2022-08-19T12:41:06;16.35;;;13.20;;
19891;SDS011;10108;50.142;8.724;2022-08-19T12:43:35;19.83;;;13.45;;
19891;SDS011;10108;50.142;8.724;2022-08-19T12:46:03;17.42;;;14.25;;
19891;SDS011;10108;50.142;8.724;2022-08-19T12:48:31;17.40;;;14.15;;
19891;SDS011;10108;50.142;8.724;2022-08-19T12:50:57;18.63;;;13.18;;
19891;SDS011;10108;50.142;8.724;2022-08-19T12:53:24;23.85;;;12.50;;
19891;SDS011;10108;50.142;8.724;2022-08-19T12:55:57;16.38;;;13.20;;
19891;SDS011;10108;50.142;8.724;2022-08-19T12:58:25;29.23;;;14.77;;
19891;SDS011;10108;50.142;8.724;2022-08-19T13:00:52;19.25;;;13.52;;
19891;SDS011;10108;50.142;8.724;2022-08-19T13:03:18;19.17;;;13.98;;
19891;SDS011;10108;50.142;8.724;2022-08-19T13:05:44;17.27;;;13.35;;
19891;SDS011;10108;50.142;8.724;2022-08-19T13:08:10;14.30;;;12.77;;
19891;SDS011;10108;50.142;8.724;2022-08-19T13:10:36;13.23;;;11.77;;
19891;SDS011;10108;50.142;8.724;2022-08-19T13:13:04;12.57;;;11.05;;
19891;SDS011;10108;50.142;8.724;2022-08-19T13:15:36;13.55;;;11.65;;
19891;SDS011;10108;50.142;8.724;2022-08-19T13:18:05;13.50;;;11.52;;
19891;SDS011;10108;50.142;8.724;2022-08-19T13:20:34;13.38;;;11.82;;
19891;SDS011;10108;50.142;8.724;2022-08-19T13:23:01;12.43;;;10.63;;
19891;SDS011;10108;50.142;8.724;2022-08-19T13:25:27;13.02;;;11.20;;
19891;SDS011;10108;50.142;8.724;2022-08-19T13:27:53;12.50;;;11.20;;
19891;SDS011;10108;50.142;8.724;2022-08-19T13:30:20;12.20;;;10.93;;
19891;SDS011;10108;50.142;8.724;2022-08-19T13:33:06;12.13;;;10.88;;
19891;SDS011;10108;50.142;8.724;2022-08-19T13:38:13;15.20;;;11.80;;
19891;SDS011;10108;50.142;8.724;2022-08-19T13:40:41;14.57;;;10.65;;
19891;SDS011;10108;50.142;8.724;2022-08-19T13:43:08;19.85;;;11.25;;
19891;SDS011;10108;50.142;8.724;2022-08-19T13:45:35;15.02;;;10.90;;
19891;SDS011;10108;50.142;8.724;2022-08-19T13:48:02;12.95;;;10.93;;
19891;SDS011;10108;50.142;8.724;2022-08-19T13:50:35;11.93;;;10.50;;
19891;SDS011;10108;50.142;8.724;2022-08-19T13:53:12;12.23;;;10.93;;
19891;SDS011;10108;50.142;8.724;2022-08-19T13:55:39;12.20;;;10.90;;
19891;SDS011;10108;50.142;8.724;2022-08-19T13:58:06;11.73;;;10.52;;
19891;SDS011;10108;50.142;8.724;2022-08-19T14:00:34;12.75;;;10.32;;
19891;SDS011;10108;50.142;8.724;2022-08-19T14:03:02;12.25;;;10.85;;
19891;SDS011;10108;50.142;8.724;2022-08-19T14:05:29;11.32;;;10.07;;
19891;SDS011;10108;50.142;8.724;2022-08-19T14:07:56;11.05;;;9.85;;
19891;SDS011;10108;50.142;8.724;2022-08-19T14:10:22;10.15;;;8.88;;
19891;SDS011;10108;50.142;8.724;2022-08-19T14:12:52;11.10;;;9.82;;
19891;SDS011;10108;50.142;8.724;2022-08-19T14:15:20;11.15;;;9.40;;
19891;SDS011;10108;50.142;8.724;2022-08-19T14:17:48;12.43;;;10.68;;
19891;SDS011;10108;50.142;8.724;2022-08-19T14:20:15;12.25;;;10.25;;
19891;SDS011;10108;50.142;8.724;2022-08-19T14:22:42;11.48;;;9.45;;
19891;SDS011;10108;50.142;8.724;2022-08-19T14:25:10;12.85;;;10.68;;
19891;SDS011;10108;50.142;8.724;2022-08-19T14:27:40;10.45;;;9.35;;
19891;SDS011;10108;50.142;8.724;2022-08-19T14:30:07;10.55;;;9.45;;
19891;SDS011;10108;50.142;8.724;2022-08-19T14:32:35;11.05;;;9.52;;
19891;SDS011;10108;50.142;8.724;2022-08-19T14:35:02;11.93;;;9.68;;
19891;SDS011;10108;50.142;8.724;2022-08-19T14:37:29;10.85;;;9.30;;
19891;SDS011;10108;50.142;8.724;2022-08-19T14:39:56;10.55;;;9.02;;
19891;SDS011;10108;50.142;8.724;2022-08-19T14:42:22;11.32;;;10.05;;
19891;SDS011;10108;50.142;8.724;2022-08-19T14:44:48;11.30;;;9.65;;
19891;SDS011;10108;50.142;8.724;2022-08-19T14:47:14;12.07;;;9.68;;